Terminal Aerodrome Forecast
Issued by NWS

Home | Current Version | Previous Version | Text Only | Print | Product List | Glossary On
Versions: 1 2 3 4 5 6 7 8 9 10 11 12 13 14 15 16 17 18 19 20 21 22 23 24 25
687
FTUS43 KLSX 282108 AAC
TAFCPS
TAF AMD
KCPS 282108Z 2821/2918 11005KT 5SM BR SCT007 OVC025
      TEMPO 2821/2824 BKN007
     FM290000 17005KT P6SM OVC025
     FM290800 06004KT 5SM -SHRA VCTS OVC015CB=

USA.gov is the U.S. government's official web portal to all federal, state and local government web resources and services.